Terminal Aerodrome Forecast
Issued by NWS

Home | Current Version | Previous Version | Graphics & Text | Print | Product List | Glossary On
Versions: 1 2 3 4 5 6 7 8 9 10 11 12 13 14 15 16 17 18 19 20 21 22 23
861
FTUS43 KMPX 231120
TAFAXN
TAF
KAXN 231120Z 2312/2412 09012KT P6SM VCSH SCT008 BKN020
     FM231300 10012G20KT P6SM BKN006 OVC020
     FM232000 11014G20KT P6SM VCSH BKN015 OVC040
     FM240300 13014KT 4SM BR OVC009=

USA.gov is the U.S. government's official web portal to all federal, state and local government web resources and services.